sensor_id;sensor_type;location;lat;lon;timestamp;P1;durP1;ratioP1;P2;durP2;ratioP2
7493;SDS011;3788;49.902;8.590;2022-12-05T00:00:48;16.13;;;10.20;;
7493;SDS011;3788;49.902;8.590;2022-12-05T00:03:14;15.23;;;10.17;;
7493;SDS011;3788;49.902;8.590;2022-12-05T00:05:41;13.17;;;9.43;;
7493;SDS011;3788;49.902;8.590;2022-12-05T00:08:09;14.73;;;9.70;;
7493;SDS011;3788;49.902;8.590;2022-12-05T00:10:36;13.80;;;9.50;;
7493;SDS011;3788;49.902;8.590;2022-12-05T00:13:03;13.77;;;9.50;;
7493;SDS011;3788;49.902;8.590;2022-12-05T00:15:30;15.43;;;10.20;;
7493;SDS011;3788;49.902;8.590;2022-12-05T00:18:00;15.93;;;9.80;;
7493;SDS011;3788;49.902;8.590;2022-12-05T00:20:27;14.17;;;9.10;;
7493;SDS011;3788;49.902;8.590;2022-12-05T00:22:54;14.53;;;9.20;;
7493;SDS011;3788;49.902;8.590;2022-12-05T00:25:22;13.23;;;9.70;;
7493;SDS011;3788;49.902;8.590;2022-12-05T00:27:48;13.70;;;9.37;;
7493;SDS011;3788;49.902;8.590;2022-12-05T00:30:15;16.17;;;9.67;;
7493;SDS011;3788;49.902;8.590;2022-12-05T00:32:42;16.30;;;10.43;;
7493;SDS011;3788;49.902;8.590;2022-12-05T00:35:08;14.80;;;10.17;;
7493;SDS011;3788;49.902;8.590;2022-12-05T00:37:35;14.80;;;9.60;;
7493;SDS011;3788;49.902;8.590;2022-12-05T00:40:02;14.30;;;9.70;;
7493;SDS011;3788;49.902;8.590;2022-12-05T00:42:31;13.37;;;9.03;;
7493;SDS011;3788;49.902;8.590;2022-12-05T00:44:57;16.50;;;10.77;;
7493;SDS011;3788;49.902;8.590;2022-12-05T00:47:24;13.30;;;9.23;;
7493;SDS011;3788;49.902;8.590;2022-12-05T00:49:51;14.40;;;9.00;;
7493;SDS011;3788;49.902;8.590;2022-12-05T00:52:17;14.67;;;9.33;;
7493;SDS011;3788;49.902;8.590;2022-12-05T00:54:44;12.73;;;8.53;;
7493;SDS011;3788;49.902;8.590;2022-12-05T00:57:11;14.73;;;9.23;;
7493;SDS011;3788;49.902;8.590;2022-12-05T00:59:39;14.37;;;9.67;;
7493;SDS011;3788;49.902;8.590;2022-12-05T01:02:06;15.27;;;10.13;;
7493;SDS011;3788;49.902;8.590;2022-12-05T01:04:32;13.47;;;9.20;;
7493;SDS011;3788;49.902;8.590;2022-12-05T01:06:59;14.23;;;9.47;;
7493;SDS011;3788;49.902;8.590;2022-12-05T01:09:26;13.27;;;9.17;;
7493;SDS011;3788;49.902;8.590;2022-12-05T01:11:52;15.10;;;9.17;;
7493;SDS011;3788;49.902;8.590;2022-12-05T01:14:20;16.30;;;10.10;;
7493;SDS011;3788;49.902;8.590;2022-12-05T01:16:51;13.90;;;9.83;;
7493;SDS011;3788;49.902;8.590;2022-12-05T01:19:20;16.43;;;10.30;;
7493;SDS011;3788;49.902;8.590;2022-12-05T01:21:48;15.87;;;10.53;;
7493;SDS011;3788;49.902;8.590;2022-12-05T01:24:15;12.97;;;9.67;;
7493;SDS011;3788;49.902;8.590;2022-12-05T01:26:43;15.57;;;10.17;;
7493;SDS011;3788;49.902;8.590;2022-12-05T01:29:11;13.87;;;10.10;;
7493;SDS011;3788;49.902;8.590;2022-12-05T01:31:39;14.03;;;10.10;;
7493;SDS011;3788;49.902;8.590;2022-12-05T01:34:12;13.93;;;9.53;;
7493;SDS011;3788;49.902;8.590;2022-12-05T01:36:40;12.60;;;9.30;;
7493;SDS011;3788;49.902;8.590;2022-12-05T01:39:07;14.00;;;9.10;;
7493;SDS011;3788;49.902;8.590;2022-12-05T01:41:36;12.30;;;8.10;;
7493;SDS011;3788;49.902;8.590;2022-12-05T01:44:06;14.30;;;9.97;;
7493;SDS011;3788;49.902;8.590;2022-12-05T01:46:53;15.60;;;10.00;;
7493;SDS011;3788;49.902;8.590;2022-12-05T01:49:24;12.30;;;9.83;;
7493;SDS011;3788;49.902;8.590;2022-12-05T01:51:54;16.27;;;10.40;;
7493;SDS011;3788;49.902;8.590;2022-12-05T01:54:25;16.67;;;10.30;;
7493;SDS011;3788;49.902;8.590;2022-12-05T01:56:55;15.60;;;10.17;;
7493;SDS011;3788;49.902;8.590;2022-12-05T01:59:24;18.70;;;11.50;;
7493;SDS011;3788;49.902;8.590;2022-12-05T02:01:54;15.80;;;10.60;;
7493;SDS011;3788;49.902;8.590;2022-12-05T02:04:22;17.67;;;11.43;;
7493;SDS011;3788;49.902;8.590;2022-12-05T02:06:51;18.30;;;10.77;;
7493;SDS011;3788;49.902;8.590;2022-12-05T02:09:18;14.83;;;9.80;;
7493;SDS011;3788;49.902;8.590;2022-12-05T02:11:46;13.87;;;10.33;;
7493;SDS011;3788;49.902;8.590;2022-12-05T02:14:19;14.07;;;9.67;;
7493;SDS011;3788;49.902;8.590;2022-12-05T02:16:54;17.03;;;10.23;;
7493;SDS011;3788;49.902;8.590;2022-12-05T02:19:37;13.43;;;10.17;;
7493;SDS011;3788;49.902;8.590;2022-12-05T02:22:27;14.37;;;10.07;;
7493;SDS011;3788;49.902;8.590;2022-12-05T02:25:24;15.07;;;10.43;;
7493;SDS011;3788;49.902;8.590;2022-12-05T02:28:26;15.40;;;9.93;;
7493;SDS011;3788;49.902;8.590;2022-12-05T02:31:08;16.00;;;10.43;;
7493;SDS011;3788;49.902;8.590;2022-12-05T02:33:40;17.80;;;11.37;;
7493;SDS011;3788;49.902;8.590;2022-12-05T02:36:14;14.60;;;10.13;;
7493;SDS011;3788;49.902;8.590;2022-12-05T02:38:46;12.40;;;9.20;;
7493;SDS011;3788;49.902;8.590;2022-12-05T02:41:20;14.27;;;9.80;;
7493;SDS011;3788;49.902;8.590;2022-12-05T02:43:50;16.17;;;10.00;;
7493;SDS011;3788;49.902;8.590;2022-12-05T02:46:24;16.23;;;10.77;;
7493;SDS011;3788;49.902;8.590;2022-12-05T02:48:55;18.17;;;10.50;;
7493;SDS011;3788;49.902;8.590;2022-12-05T02:51:26;14.93;;;10.17;;
7493;SDS011;3788;49.902;8.590;2022-12-05T02:53:57;16.40;;;10.90;;
7493;SDS011;3788;49.902;8.590;2022-12-05T02:56:27;15.77;;;10.57;;
7493;SDS011;3788;49.902;8.590;2022-12-05T02:58:57;15.23;;;10.07;;
7493;SDS011;3788;49.902;8.590;2022-12-05T03:01:27;14.93;;;10.17;;
7493;SDS011;3788;49.902;8.590;2022-12-05T03:03:57;15.67;;;10.10;;
7493;SDS011;3788;49.902;8.590;2022-12-05T03:06:26;16.03;;;10.00;;
7493;SDS011;3788;49.902;8.590;2022-12-05T03:08:56;14.33;;;9.67;;
7493;SDS011;3788;49.902;8.590;2022-12-05T03:11:26;13.03;;;8.97;;
7493;SDS011;3788;49.902;8.590;2022-12-05T03:13:57;13.23;;;9.50;;
7493;SDS011;3788;49.902;8.590;2022-12-05T03:16:30;12.90;;;8.57;;
7493;SDS011;3788;49.902;8.590;2022-12-05T03:19:00;11.00;;;8.83;;
7493;SDS011;3788;49.902;8.590;2022-12-05T03:21:33;13.33;;;9.10;;
7493;SDS011;3788;49.902;8.590;2022-12-05T03:24:02;12.77;;;9.30;;
7493;SDS011;3788;49.902;8.590;2022-12-05T03:26:35;12.73;;;8.93;;
7493;SDS011;3788;49.902;8.590;2022-12-05T03:29:09;12.90;;;8.60;;
7493;SDS011;3788;49.902;8.590;2022-12-05T03:31:49;14.30;;;9.57;;
7493;SDS011;3788;49.902;8.590;2022-12-05T03:34:24;12.63;;;8.73;;
7493;SDS011;3788;49.902;8.590;2022-12-05T03:37:00;13.30;;;9.37;;
7493;SDS011;3788;49.902;8.590;2022-12-05T03:39:31;12.23;;;8.63;;
7493;SDS011;3788;49.902;8.590;2022-12-05T03:42:01;12.47;;;8.30;;
7493;SDS011;3788;49.902;8.590;2022-12-05T03:44:35;11.27;;;8.37;;
7493;SDS011;3788;49.902;8.590;2022-12-05T03:47:09;15.80;;;9.63;;
7493;SDS011;3788;49.902;8.590;2022-12-05T03:49:43;12.83;;;9.43;;
7493;SDS011;3788;49.902;8.590;2022-12-05T03:52:14;15.07;;;9.30;;
7493;SDS011;3788;49.902;8.590;2022-12-05T03:54:46;16.03;;;10.53;;
7493;SDS011;3788;49.902;8.590;2022-12-05T03:57:17;17.63;;;10.63;;
7493;SDS011;3788;49.902;8.590;2022-12-05T03:59:48;16.73;;;9.90;;
7493;SDS011;3788;49.902;8.590;2022-12-05T04:02:19;18.43;;;11.50;;
7493;SDS011;3788;49.902;8.590;2022-12-05T04:04:51;18.07;;;11.13;;
7493;SDS011;3788;49.902;8.590;2022-12-05T04:07:21;16.47;;;11.07;;
7493;SDS011;3788;49.902;8.590;2022-12-05T04:09:51;17.43;;;11.37;;
7493;SDS011;3788;49.902;8.590;2022-12-05T04:12:25;18.03;;;10.07;;
7493;SDS011;3788;49.902;8.590;2022-12-05T04:14:54;20.13;;;11.37;;
7493;SDS011;3788;49.902;8.590;2022-12-05T04:17:26;20.27;;;11.47;;
7493;SDS011;3788;49.902;8.590;2022-12-05T04:19:59;19.80;;;11.67;;
7493;SDS011;3788;49.902;8.590;2022-12-05T04:22:47;17.33;;;10.90;;
7493;SDS011;3788;49.902;8.590;2022-12-05T04:25:14;16.00;;;10.80;;
7493;SDS011;3788;49.902;8.590;2022-12-05T04:27:59;16.47;;;11.27;;
7493;SDS011;3788;49.902;8.590;2022-12-05T04:30:45;16.17;;;11.40;;
7493;SDS011;3788;49.902;8.590;2022-12-05T04:33:18;17.90;;;12.17;;
7493;SDS011;3788;49.902;8.590;2022-12-05T04:35:52;19.63;;;11.10;;
7493;SDS011;3788;49.902;8.590;2022-12-05T04:38:24;23.07;;;12.90;;
7493;SDS011;3788;49.902;8.590;2022-12-05T04:41:01;22.83;;;13.57;;
7493;SDS011;3788;49.902;8.590;2022-12-05T04:43:32;20.20;;;12.43;;
7493;SDS011;3788;49.902;8.590;2022-12-05T04:46:02;20.83;;;12.07;;
7493;SDS011;3788;49.902;8.590;2022-12-05T04:48:33;22.53;;;13.10;;
7493;SDS011;3788;49.902;8.590;2022-12-05T04:51:03;21.57;;;13.53;;
7493;SDS011;3788;49.902;8.590;2022-12-05T04:53:33;19.20;;;12.23;;
7493;SDS011;3788;49.902;8.590;2022-12-05T04:56:01;20.90;;;12.87;;
7493;SDS011;3788;49.902;8.590;2022-12-05T04:58:30;21.87;;;13.13;;
7493;SDS011;3788;49.902;8.590;2022-12-05T05:00:58;24.63;;;14.13;;
7493;SDS011;3788;49.902;8.590;2022-12-05T05:03:30;26.03;;;14.47;;
7493;SDS011;3788;49.902;8.590;2022-12-05T05:06:02;24.07;;;14.00;;
7493;SDS011;3788;49.902;8.590;2022-12-05T05:08:29;24.73;;;14.80;;
7493;SDS011;3788;49.902;8.590;2022-12-05T05:11:00;26.57;;;14.33;;
7493;SDS011;3788;49.902;8.590;2022-12-05T05:13:34;23.13;;;13.97;;
7493;SDS011;3788;49.902;8.590;2022-12-05T05:16:01;24.80;;;13.73;;
7493;SDS011;3788;49.902;8.590;2022-12-05T05:18:28;23.93;;;13.20;;
7493;SDS011;3788;49.902;8.590;2022-12-05T05:20:57;23.90;;;13.43;;
7493;SDS011;3788;49.902;8.590;2022-12-05T05:23:23;30.33;;;15.23;;
7493;SDS011;3788;49.902;8.590;2022-12-05T05:25:51;21.00;;;12.67;;
7493;SDS011;3788;49.902;8.590;2022-12-05T05:28:18;22.37;;;12.67;;
7493;SDS011;3788;49.902;8.590;2022-12-05T05:30:45;26.63;;;14.50;;
7493;SDS011;3788;49.902;8.590;2022-12-05T05:33:13;23.60;;;13.40;;
7493;SDS011;3788;49.902;8.590;2022-12-05T05:35:40;18.90;;;11.43;;
7493;SDS011;3788;49.902;8.590;2022-12-05T05:38:08;20.50;;;12.07;;
7493;SDS011;3788;49.902;8.590;2022-12-05T05:40:35;23.27;;;12.33;;
7493;SDS011;3788;49.902;8.590;2022-12-05T05:43:02;26.23;;;13.20;;
7493;SDS011;3788;49.902;8.590;2022-12-05T05:45:28;27.70;;;13.83;;
7493;SDS011;3788;49.902;8.590;2022-12-05T05:47:55;24.40;;;14.03;;
7493;SDS011;3788;49.902;8.590;2022-12-05T05:50:22;24.40;;;14.00;;
7493;SDS011;3788;49.902;8.590;2022-12-05T05:52:49;28.20;;;15.47;;
7493;SDS011;3788;49.902;8.590;2022-12-05T05:55:17;29.00;;;15.13;;
7493;SDS011;3788;49.902;8.590;2022-12-05T05:57:44;29.60;;;15.83;;
7493;SDS011;3788;49.902;8.590;2022-12-05T06:00:11;31.43;;;15.50;;
7493;SDS011;3788;49.902;8.590;2022-12-05T06:02:40;28.83;;;14.73;;
7493;SDS011;3788;49.902;8.590;2022-12-05T06:05:07;34.13;;;17.60;;
7493;SDS011;3788;49.902;8.590;2022-12-05T06:07:34;30.00;;;15.83;;
7493;SDS011;3788;49.902;8.590;2022-12-05T06:10:01;27.03;;;14.67;;
7493;SDS011;3788;49.902;8.590;2022-12-05T06:12:29;29.03;;;16.10;;
7493;SDS011;3788;49.902;8.590;2022-12-05T06:14:56;35.73;;;17.00;;
7493;SDS011;3788;49.902;8.590;2022-12-05T06:17:22;31.23;;;16.00;;
7493;SDS011;3788;49.902;8.590;2022-12-05T06:19:49;29.77;;;15.33;;
7493;SDS011;3788;49.902;8.590;2022-12-05T06:22:16;29.73;;;17.20;;
7493;SDS011;3788;49.902;8.590;2022-12-05T06:24:42;34.67;;;16.87;;
7493;SDS011;3788;49.902;8.590;2022-12-05T06:27:09;31.60;;;15.90;;
7493;SDS011;3788;49.902;8.590;2022-12-05T06:29:38;32.90;;;14.77;;
7493;SDS011;3788;49.902;8.590;2022-12-05T06:32:04;28.63;;;15.07;;
7493;SDS011;3788;49.902;8.590;2022-12-05T06:34:31;33.20;;;15.20;;
7493;SDS011;3788;49.902;8.590;2022-12-05T06:36:59;29.70;;;16.73;;
7493;SDS011;3788;49.902;8.590;2022-12-05T06:39:26;24.70;;;13.87;;
7493;SDS011;3788;49.902;8.590;2022-12-05T06:41:53;26.53;;;13.97;;
7493;SDS011;3788;49.902;8.590;2022-12-05T06:44:20;30.20;;;14.93;;
7493;SDS011;3788;49.902;8.590;2022-12-05T06:46:50;28.63;;;14.93;;
7493;SDS011;3788;49.902;8.590;2022-12-05T06:49:16;29.97;;;14.90;;
7493;SDS011;3788;49.902;8.590;2022-12-05T06:51:43;29.53;;;15.37;;
7493;SDS011;3788;49.902;8.590;2022-12-05T06:54:10;35.10;;;15.77;;
7493;SDS011;3788;49.902;8.590;2022-12-05T06:56:37;33.50;;;15.93;;
7493;SDS011;3788;49.902;8.590;2022-12-05T06:59:03;34.20;;;15.33;;
7493;SDS011;3788;49.902;8.590;2022-12-05T07:01:30;27.30;;;14.77;;
7493;SDS011;3788;49.902;8.590;2022-12-05T07:04:09;30.33;;;14.27;;
7493;SDS011;3788;49.902;8.590;2022-12-05T07:06:38;28.90;;;13.87;;
7493;SDS011;3788;49.902;8.590;2022-12-05T07:09:05;28.37;;;14.17;;
7493;SDS011;3788;49.902;8.590;2022-12-05T07:11:32;25.33;;;13.10;;
7493;SDS011;3788;49.902;8.590;2022-12-05T07:13:59;25.73;;;14.50;;
7493;SDS011;3788;49.902;8.590;2022-12-05T07:16:27;28.93;;;14.40;;
7493;SDS011;3788;49.902;8.590;2022-12-05T07:18:53;31.90;;;16.37;;
7493;SDS011;3788;49.902;8.590;2022-12-05T07:21:22;31.73;;;16.47;;
7493;SDS011;3788;49.902;8.590;2022-12-05T07:23:49;34.20;;;16.70;;
7493;SDS011;3788;49.902;8.590;2022-12-05T07:26:17;35.53;;;16.97;;
7493;SDS011;3788;49.902;8.590;2022-12-05T07:28:45;37.20;;;17.57;;
7493;SDS011;3788;49.902;8.590;2022-12-05T07:31:13;32.77;;;15.60;;
7493;SDS011;3788;49.902;8.590;2022-12-05T07:33:41;32.20;;;17.83;;
7493;SDS011;3788;49.902;8.590;2022-12-05T07:36:09;27.57;;;16.07;;
7493;SDS011;3788;49.902;8.590;2022-12-05T07:38:39;32.60;;;16.20;;
7493;SDS011;3788;49.902;8.590;2022-12-05T07:41:07;34.40;;;16.83;;
7493;SDS011;3788;49.902;8.590;2022-12-05T07:43:35;34.80;;;18.77;;
7493;SDS011;3788;49.902;8.590;2022-12-05T07:46:02;37.97;;;19.23;;
7493;SDS011;3788;49.902;8.590;2022-12-05T07:48:31;30.97;;;17.03;;
7493;SDS011;3788;49.902;8.590;2022-12-05T07:50:58;32.47;;;17.67;;
7493;SDS011;3788;49.902;8.590;2022-12-05T07:53:26;39.00;;;18.57;;
7493;SDS011;3788;49.902;8.590;2022-12-05T07:55:57;35.20;;;17.27;;
7493;SDS011;3788;49.902;8.590;2022-12-05T07:58:24;32.73;;;15.77;;
7493;SDS011;3788;49.902;8.590;2022-12-05T08:00:51;32.37;;;16.10;;
7493;SDS011;3788;49.902;8.590;2022-12-05T08:03:18;34.97;;;18.77;;
7493;SDS011;3788;49.902;8.590;2022-12-05T08:05:45;35.53;;;17.43;;
7493;SDS011;3788;49.902;8.590;2022-12-05T08:08:11;34.13;;;17.57;;
7493;SDS011;3788;49.902;8.590;2022-12-05T08:10:38;34.47;;;17.67;;
7493;SDS011;3788;49.902;8.590;2022-12-05T08:13:06;35.37;;;16.93;;
7493;SDS011;3788;49.902;8.590;2022-12-05T08:15:33;33.80;;;17.07;;
7493;SDS011;3788;49.902;8.590;2022-12-05T08:18:01;29.00;;;15.33;;
7493;SDS011;3788;49.902;8.590;2022-12-05T08:20:28;31.83;;;16.50;;
7493;SDS011;3788;49.902;8.590;2022-12-05T08:22:54;28.90;;;15.17;;
7493;SDS011;3788;49.902;8.590;2022-12-05T08:25:21;26.90;;;14.00;;
7493;SDS011;3788;49.902;8.590;2022-12-05T08:27:48;24.77;;;14.30;;
7493;SDS011;3788;49.902;8.590;2022-12-05T08:30:17;26.83;;;14.07;;
7493;SDS011;3788;49.902;8.590;2022-12-05T08:32:43;27.87;;;14.13;;
7493;SDS011;3788;49.902;8.590;2022-12-05T08:35:10;26.20;;;13.67;;
7493;SDS011;3788;49.902;8.590;2022-12-05T08:37:37;25.87;;;14.50;;
7493;SDS011;3788;49.902;8.590;2022-12-05T08:40:04;27.83;;;14.80;;
7493;SDS011;3788;49.902;8.590;2022-12-05T08:42:32;28.93;;;15.17;;
7493;SDS011;3788;49.902;8.590;2022-12-05T08:44:58;25.33;;;14.77;;
7493;SDS011;3788;49.902;8.590;2022-12-05T08:47:26;28.60;;;16.00;;
7493;SDS011;3788;49.902;8.590;2022-12-05T08:49:53;26.57;;;13.80;;
7493;SDS011;3788;49.902;8.590;2022-12-05T08:52:19;26.97;;;15.20;;
7493;SDS011;3788;49.902;8.590;2022-12-05T08:54:46;28.33;;;14.43;;
7493;SDS011;3788;49.902;8.590;2022-12-05T08:57:13;31.07;;;16.03;;
7493;SDS011;3788;49.902;8.590;2022-12-05T08:59:40;31.43;;;15.27;;
7493;SDS011;3788;49.902;8.590;2022-12-05T09:02:07;29.10;;;14.37;;
7493;SDS011;3788;49.902;8.590;2022-12-05T09:04:36;26.83;;;14.63;;
7493;SDS011;3788;49.902;8.590;2022-12-05T09:07:02;32.53;;;15.70;;
7493;SDS011;3788;49.902;8.590;2022-12-05T09:09:30;28.77;;;16.00;;
7493;SDS011;3788;49.902;8.590;2022-12-05T09:11:57;28.70;;;14.60;;
7493;SDS011;3788;49.902;8.590;2022-12-05T09:14:25;33.77;;;16.20;;
7493;SDS011;3788;49.902;8.590;2022-12-05T09:16:56;29.33;;;15.97;;
7493;SDS011;3788;49.902;8.590;2022-12-05T09:19:24;30.30;;;15.23;;
7493;SDS011;3788;49.902;8.590;2022-12-05T09:21:53;29.10;;;14.57;;
7493;SDS011;3788;49.902;8.590;2022-12-05T09:24:20;28.87;;;14.97;;
7493;SDS011;3788;49.902;8.590;2022-12-05T09:26:46;27.13;;;13.67;;
7493;SDS011;3788;49.902;8.590;2022-12-05T09:29:13;25.57;;;14.07;;
7493;SDS011;3788;49.902;8.590;2022-12-05T09:31:40;29.03;;;14.90;;
7493;SDS011;3788;49.902;8.590;2022-12-05T09:34:07;28.20;;;14.13;;
7493;SDS011;3788;49.902;8.590;2022-12-05T09:36:34;26.47;;;13.73;;
7493;SDS011;3788;49.902;8.590;2022-12-05T09:39:03;28.17;;;15.57;;
7493;SDS011;3788;49.902;8.590;2022-12-05T09:41:36;32.33;;;15.97;;
7493;SDS011;3788;49.902;8.590;2022-12-05T09:44:40;29.33;;;15.47;;
7493;SDS011;3788;49.902;8.590;2022-12-05T09:47:13;25.43;;;14.23;;
7493;SDS011;3788;49.902;8.590;2022-12-05T09:49:50;27.63;;;14.80;;
7493;SDS011;3788;49.902;8.590;2022-12-05T09:52:21;27.53;;;15.17;;
7493;SDS011;3788;49.902;8.590;2022-12-05T09:54:53;24.47;;;13.53;;
7493;SDS011;3788;49.902;8.590;2022-12-05T09:57:27;28.23;;;15.40;;
7493;SDS011;3788;49.902;8.590;2022-12-05T09:59:58;23.03;;;14.20;;
7493;SDS011;3788;49.902;8.590;2022-12-05T10:02:28;22.37;;;13.53;;
7493;SDS011;3788;49.902;8.590;2022-12-05T10:05:01;22.87;;;13.70;;
7493;SDS011;3788;49.902;8.590;2022-12-05T10:07:33;23.20;;;13.50;;
7493;SDS011;3788;49.902;8.590;2022-12-05T10:10:18;24.80;;;13.70;;
7493;SDS011;3788;49.902;8.590;2022-12-05T10:12:53;22.73;;;13.93;;
7493;SDS011;3788;49.902;8.590;2022-12-05T10:15:40;19.53;;;13.47;;
7493;SDS011;3788;49.902;8.590;2022-12-05T10:18:09;21.43;;;12.30;;
7493;SDS011;3788;49.902;8.590;2022-12-05T10:20:46;22.90;;;12.53;;
7493;SDS011;3788;49.902;8.590;2022-12-05T10:23:17;22.07;;;13.37;;
7493;SDS011;3788;49.902;8.590;2022-12-05T10:25:52;23.77;;;11.90;;
7493;SDS011;3788;49.902;8.590;2022-12-05T10:28:26;18.73;;;12.13;;
7493;SDS011;3788;49.902;8.590;2022-12-05T10:30:59;20.87;;;12.90;;
7493;SDS011;3788;49.902;8.590;2022-12-05T10:33:32;21.57;;;12.83;;
7493;SDS011;3788;49.902;8.590;2022-12-05T10:36:08;23.90;;;12.60;;
7493;SDS011;3788;49.902;8.590;2022-12-05T10:38:36;25.63;;;14.00;;
7493;SDS011;3788;49.902;8.590;2022-12-05T10:41:04;24.87;;;14.37;;
7493;SDS011;3788;49.902;8.590;2022-12-05T10:43:34;22.13;;;13.47;;
7493;SDS011;3788;49.902;8.590;2022-12-05T10:46:02;22.27;;;13.70;;
7493;SDS011;3788;49.902;8.590;2022-12-05T10:48:30;26.57;;;14.30;;
7493;SDS011;3788;49.902;8.590;2022-12-05T10:51:01;22.73;;;13.60;;
7493;SDS011;3788;49.902;8.590;2022-12-05T10:53:30;23.00;;;13.60;;
7493;SDS011;3788;49.902;8.590;2022-12-05T10:56:04;23.07;;;13.30;;
7493;SDS011;3788;49.902;8.590;2022-12-05T10:59:01;22.87;;;13.30;;
7493;SDS011;3788;49.902;8.590;2022-12-05T11:01:28;26.73;;;15.47;;
7493;SDS011;3788;49.902;8.590;2022-12-05T11:03:55;25.97;;;13.77;;
7493;SDS011;3788;49.902;8.590;2022-12-05T11:06:24;27.73;;;14.50;;
7493;SDS011;3788;49.902;8.590;2022-12-05T11:08:53;21.60;;;12.57;;
7493;SDS011;3788;49.902;8.590;2022-12-05T11:11:24;22.47;;;13.50;;
7493;SDS011;3788;49.902;8.590;2022-12-05T11:13:53;23.87;;;14.40;;
7493;SDS011;3788;49.902;8.590;2022-12-05T11:16:22;22.87;;;14.47;;
7493;SDS011;3788;49.902;8.590;2022-12-05T11:18:50;29.93;;;16.57;;
7493;SDS011;3788;49.902;8.590;2022-12-05T11:21:17;26.87;;;14.80;;
7493;SDS011;3788;49.902;8.590;2022-12-05T11:23:44;22.90;;;13.87;;
7493;SDS011;3788;49.902;8.590;2022-12-05T11:26:15;21.30;;;12.80;;
7493;SDS011;3788;49.902;8.590;2022-12-05T11:28:45;25.37;;;14.70;;
7493;SDS011;3788;49.902;8.590;2022-12-05T11:31:18;27.07;;;15.73;;
7493;SDS011;3788;49.902;8.590;2022-12-05T11:33:59;26.13;;;13.67;;
7493;SDS011;3788;49.902;8.590;2022-12-05T11:36:31;25.87;;;14.13;;
7493;SDS011;3788;49.902;8.590;2022-12-05T11:39:04;25.50;;;14.07;;
7493;SDS011;3788;49.902;8.590;2022-12-05T11:41:35;26.03;;;14.47;;
7493;SDS011;3788;49.902;8.590;2022-12-05T11:44:25;23.97;;;13.93;;
7493;SDS011;3788;49.902;8.590;2022-12-05T11:47:15;26.90;;;14.33;;
7493;SDS011;3788;49.902;8.590;2022-12-05T11:49:54;23.57;;;14.57;;
7493;SDS011;3788;49.902;8.590;2022-12-05T11:52:33;24.37;;;13.90;;
7493;SDS011;3788;49.902;8.590;2022-12-05T11:55:13;29.40;;;15.50;;
7493;SDS011;3788;49.902;8.590;2022-12-05T12:00:36;21.57;;;12.53;;
7493;SDS011;3788;49.902;8.590;2022-12-05T12:06:18;22.10;;;13.57;;
7493;SDS011;3788;49.902;8.590;2022-12-05T12:08:55;28.33;;;14.80;;
7493;SDS011;3788;49.902;8.590;2022-12-05T12:11:36;22.87;;;13.23;;
7493;SDS011;3788;49.902;8.590;2022-12-05T12:14:09;21.90;;;13.17;;
7493;SDS011;3788;49.902;8.590;2022-12-05T12:16:47;24.03;;;13.80;;
7493;SDS011;3788;49.902;8.590;2022-12-05T12:19:29;23.97;;;13.47;;
7493;SDS011;3788;49.902;8.590;2022-12-05T12:24:59;26.33;;;14.43;;
7493;SDS011;3788;49.902;8.590;2022-12-05T12:27:38;24.03;;;13.43;;
7493;SDS011;3788;49.902;8.590;2022-12-05T12:30:19;21.13;;;12.97;;
7493;SDS011;3788;49.902;8.590;2022-12-05T12:32:51;26.90;;;14.17;;
7493;SDS011;3788;49.902;8.590;2022-12-05T12:35:28;22.07;;;12.37;;
7493;SDS011;3788;49.902;8.590;2022-12-05T12:38:00;24.90;;;13.23;;
7493;SDS011;3788;49.902;8.590;2022-12-05T12:40:55;21.57;;;12.30;;
7493;SDS011;3788;49.902;8.590;2022-12-05T12:43:33;20.17;;;12.20;;
7493;SDS011;3788;49.902;8.590;2022-12-05T12:46:13;27.27;;;15.20;;
7493;SDS011;3788;49.902;8.590;2022-12-05T12:48:53;24.67;;;13.03;;
7493;SDS011;3788;49.902;8.590;2022-12-05T12:51:30;20.73;;;12.47;;
7493;SDS011;3788;49.902;8.590;2022-12-05T12:54:03;22.97;;;12.73;;
7493;SDS011;3788;49.902;8.590;2022-12-05T12:56:41;23.63;;;13.17;;
7493;SDS011;3788;49.902;8.590;2022-12-05T12:59:22;22.10;;;12.70;;
7493;SDS011;3788;49.902;8.590;2022-12-05T13:01:59;23.40;;;13.03;;
7493;SDS011;3788;49.902;8.590;2022-12-05T13:04:39;22.73;;;13.00;;
7493;SDS011;3788;49.902;8.590;2022-12-05T13:07:12;23.37;;;13.33;;
7493;SDS011;3788;49.902;8.590;2022-12-05T13:09:42;23.57;;;13.70;;
7493;SDS011;3788;49.902;8.590;2022-12-05T13:12:14;18.27;;;12.37;;
7493;SDS011;3788;49.902;8.590;2022-12-05T13:14:44;25.30;;;13.80;;
7493;SDS011;3788;49.902;8.590;2022-12-05T13:17:17;26.60;;;15.10;;
7493;SDS011;3788;49.902;8.590;2022-12-05T13:19:49;23.00;;;13.20;;
7493;SDS011;3788;49.902;8.590;2022-12-05T13:22:17;26.57;;;12.83;;
7493;SDS011;3788;49.902;8.590;2022-12-05T13:24:48;25.03;;;13.80;;
7493;SDS011;3788;49.902;8.590;2022-12-05T13:27:16;22.30;;;13.40;;
7493;SDS011;3788;49.902;8.590;2022-12-05T13:29:47;22.67;;;12.67;;
7493;SDS011;3788;49.902;8.590;2022-12-05T13:32:24;22.27;;;12.50;;
7493;SDS011;3788;49.902;8.590;2022-12-05T13:34:54;17.60;;;11.87;;
7493;SDS011;3788;49.902;8.590;2022-12-05T13:37:24;19.47;;;10.63;;
7493;SDS011;3788;49.902;8.590;2022-12-05T13:40:24;18.47;;;11.10;;
7493;SDS011;3788;49.902;8.590;2022-12-05T13:43:11;20.77;;;12.60;;
7493;SDS011;3788;49.902;8.590;2022-12-05T13:45:40;19.50;;;12.37;;
7493;SDS011;3788;49.902;8.590;2022-12-05T13:48:18;22.60;;;12.10;;
7493;SDS011;3788;49.902;8.590;2022-12-05T13:50:50;22.43;;;12.10;;
7493;SDS011;3788;49.902;8.590;2022-12-05T13:53:22;24.60;;;14.10;;
7493;SDS011;3788;49.902;8.590;2022-12-05T13:55:54;25.90;;;14.13;;
7493;SDS011;3788;49.902;8.590;2022-12-05T13:58:43;24.27;;;13.90;;
7493;SDS011;3788;49.902;8.590;2022-12-05T14:04:21;21.43;;;13.97;;
7493;SDS011;3788;49.902;8.590;2022-12-05T14:07:05;20.27;;;12.73;;
7493;SDS011;3788;49.902;8.590;2022-12-05T14:09:47;21.20;;;13.30;;
7493;SDS011;3788;49.902;8.590;2022-12-05T14:12:29;22.20;;;13.20;;
7493;SDS011;3788;49.902;8.590;2022-12-05T14:15:22;20.47;;;13.50;;
7493;SDS011;3788;49.902;8.590;2022-12-05T14:17:53;25.40;;;14.10;;
7493;SDS011;3788;49.902;8.590;2022-12-05T14:20:24;24.37;;;14.77;;
7493;SDS011;3788;49.902;8.590;2022-12-05T14:23:07;23.17;;;14.87;;
7493;SDS011;3788;49.902;8.590;2022-12-05T14:25:54;23.43;;;13.60;;
7493;SDS011;3788;49.902;8.590;2022-12-05T14:28:35;21.03;;;12.83;;
7493;SDS011;3788;49.902;8.590;2022-12-05T14:31:16;20.53;;;13.07;;
7493;SDS011;3788;49.902;8.590;2022-12-05T14:34:02;19.47;;;12.70;;
7493;SDS011;3788;49.902;8.590;2022-12-05T14:36:31;21.50;;;13.40;;
7493;SDS011;3788;49.902;8.590;2022-12-05T14:38:59;21.23;;;12.30;;
7493;SDS011;3788;49.902;8.590;2022-12-05T14:41:30;19.77;;;13.27;;
7493;SDS011;3788;49.902;8.590;2022-12-05T14:44:00;21.00;;;12.77;;
7493;SDS011;3788;49.902;8.590;2022-12-05T14:46:28;21.53;;;13.73;;
7493;SDS011;3788;49.902;8.590;2022-12-05T14:48:58;24.13;;;14.87;;
7493;SDS011;3788;49.902;8.590;2022-12-05T14:52:18;21.73;;;14.17;;
7493;SDS011;3788;49.902;8.590;2022-12-05T14:54:48;21.57;;;14.30;;
7493;SDS011;3788;49.902;8.590;2022-12-05T14:57:17;20.87;;;13.60;;
7493;SDS011;3788;49.902;8.590;2022-12-05T14:59:48;24.47;;;15.17;;
7493;SDS011;3788;49.902;8.590;2022-12-05T15:02:18;24.60;;;15.00;;
7493;SDS011;3788;49.902;8.590;2022-12-05T15:04:49;23.60;;;14.27;;
7493;SDS011;3788;49.902;8.590;2022-12-05T15:07:19;24.27;;;14.63;;
7493;SDS011;3788;49.902;8.590;2022-12-05T15:09:55;24.53;;;15.00;;
7493;SDS011;3788;49.902;8.590;2022-12-05T15:12:25;22.80;;;14.57;;
7493;SDS011;3788;49.902;8.590;2022-12-05T15:15:04;21.97;;;14.13;;
7493;SDS011;3788;49.902;8.590;2022-12-05T15:17:44;21.60;;;13.63;;
7493;SDS011;3788;49.902;8.590;2022-12-05T15:20:15;21.10;;;13.90;;
7493;SDS011;3788;49.902;8.590;2022-12-05T15:22:47;23.10;;;13.70;;
7493;SDS011;3788;49.902;8.590;2022-12-05T15:28:03;22.57;;;13.30;;
7493;SDS011;3788;49.902;8.590;2022-12-05T15:30:32;22.23;;;14.37;;